sensor_id;sensor_type;location;lat;lon;timestamp;pressure;altitude;pressure_sealevel;temperature;humidity
11523;BME280;70090;43.208;27.904;2023-08-06T00:00:42;99747.25;;;27.13;100.00
11523;BME280;70090;43.208;27.904;2023-08-06T00:03:09;99738.78;;;27.13;100.00
11523;BME280;70090;43.208;27.904;2023-08-06T00:05:36;99719.75;;;27.14;100.00
11523;BME280;70090;43.208;27.904;2023-08-06T00:08:03;99719.53;;;27.23;100.00
11523;BME280;70090;43.208;27.904;2023-08-06T00:10:31;99714.94;;;27.25;100.00
11523;BME280;70090;43.208;27.904;2023-08-06T00:12:58;99704.41;;;27.20;100.00
11523;BME280;70090;43.208;27.904;2023-08-06T00:15:25;99695.41;;;27.22;100.00
11523;BME280;70090;43.208;27.904;2023-08-06T00:17:51;99709.03;;;27.23;100.00
11523;BME280;70090;43.208;27.904;2023-08-06T00:20:18;99698.78;;;27.26;100.00
11523;BME280;70090;43.208;27.904;2023-08-06T00:22:45;99709.53;;;27.22;100.00
11523;BME280;70090;43.208;27.904;2023-08-06T00:25:12;99708.78;;;27.21;100.00
11523;BME280;70090;43.208;27.904;2023-08-06T00:27:40;99697.97;;;27.20;100.00
11523;BME280;70090;43.208;27.904;2023-08-06T00:30:08;99701.03;;;27.16;100.00
11523;BME280;70090;43.208;27.904;2023-08-06T00:32:34;99688.69;;;27.14;100.00
11523;BME280;70090;43.208;27.904;2023-08-06T00:35:01;99694.88;;;27.12;100.00
11523;BME280;70090;43.208;27.904;2023-08-06T00:37:29;99677.13;;;27.12;100.00
11523;BME280;70090;43.208;27.904;2023-08-06T00:39:56;99677.69;;;27.21;100.00
11523;BME280;70090;43.208;27.904;2023-08-06T00:42:23;99695.66;;;27.24;100.00
11523;BME280;70090;43.208;27.904;2023-08-06T00:44:51;99688.19;;;27.15;100.00
11523;BME280;70090;43.208;27.904;2023-08-06T00:47:18;99700.28;;;27.16;100.00
11523;BME280;70090;43.208;27.904;2023-08-06T00:49:45;99695.13;;;27.14;100.00
11523;BME280;70090;43.208;27.904;2023-08-06T00:52:13;99699.41;;;27.04;100.00
11523;BME280;70090;43.208;27.904;2023-08-06T00:54:40;99697.09;;;27.08;100.00
11523;BME280;70090;43.208;27.904;2023-08-06T00:57:07;99698.94;;;27.11;100.00
11523;BME280;70090;43.208;27.904;2023-08-06T00:59:35;99692.03;;;27.12;100.00
11523;BME280;70090;43.208;27.904;2023-08-06T01:02:04;99683.84;;;27.20;100.00
11523;BME280;70090;43.208;27.904;2023-08-06T01:04:31;99678.97;;;27.20;100.00
11523;BME280;70090;43.208;27.904;2023-08-06T01:07:06;99685.88;;;27.19;100.00
11523;BME280;70090;43.208;27.904;2023-08-06T01:09:45;99688.72;;;27.19;100.00
11523;BME280;70090;43.208;27.904;2023-08-06T01:12:25;99683.06;;;27.19;100.00
11523;BME280;70090;43.208;27.904;2023-08-06T01:15:00;99669.22;;;27.21;100.00
11523;BME280;70090;43.208;27.904;2023-08-06T01:17:34;99672.31;;;27.23;100.00
11523;BME280;70090;43.208;27.904;2023-08-06T01:20:01;99660.75;;;27.27;100.00
11523;BME280;70090;43.208;27.904;2023-08-06T01:22:30;99658.94;;;27.29;100.00
11523;BME280;70090;43.208;27.904;2023-08-06T01:24:57;99653.31;;;27.29;100.00
11523;BME280;70090;43.208;27.904;2023-08-06T01:27:28;99646.38;;;27.30;100.00
11523;BME280;70090;43.208;27.904;2023-08-06T01:30:03;99635.34;;;27.32;100.00
11523;BME280;70090;43.208;27.904;2023-08-06T01:32:34;99636.09;;;27.33;100.00
11523;BME280;70090;43.208;27.904;2023-08-06T01:35:03;99629.41;;;27.30;100.00
11523;BME280;70090;43.208;27.904;2023-08-06T01:37:32;99632.53;;;27.32;100.00
11523;BME280;70090;43.208;27.904;2023-08-06T01:39:59;99629.94;;;27.34;100.00
11523;BME280;70090;43.208;27.904;2023-08-06T01:42:26;99624.31;;;27.34;100.00
11523;BME280;70090;43.208;27.904;2023-08-06T01:44:53;99618.13;;;27.30;100.00
11523;BME280;70090;43.208;27.904;2023-08-06T01:47:19;99609.13;;;27.26;100.00
11523;BME280;70090;43.208;27.904;2023-08-06T01:49:46;99605.53;;;27.20;100.00
11523;BME280;70090;43.208;27.904;2023-08-06T01:52:13;99606.78;;;27.19;100.00
11523;BME280;70090;43.208;27.904;2023-08-06T01:54:41;99603.22;;;27.19;100.00
11523;BME280;70090;43.208;27.904;2023-08-06T01:57:08;99600.88;;;27.17;100.00
11523;BME280;70090;43.208;27.904;2023-08-06T01:59:35;99602.44;;;27.18;100.00
11523;BME280;70090;43.208;27.904;2023-08-06T02:02:02;99596.78;;;27.18;100.00
11523;BME280;70090;43.208;27.904;2023-08-06T02:04:29;99602.44;;;27.18;100.00
11523;BME280;70090;43.208;27.904;2023-08-06T02:06:56;99599.34;;;27.16;100.00
11523;BME280;70090;43.208;27.904;2023-08-06T02:09:22;99598.31;;;27.19;100.00
11523;BME280;70090;43.208;27.904;2023-08-06T02:11:51;99596.53;;;27.22;100.00
11523;BME280;70090;43.208;27.904;2023-08-06T02:14:17;99594.75;;;27.24;100.00
11523;BME280;70090;43.208;27.904;2023-08-06T02:16:44;99601.94;;;27.25;100.00
11523;BME280;70090;43.208;27.904;2023-08-06T02:19:11;99584.72;;;27.23;100.00
11523;BME280;70090;43.208;27.904;2023-08-06T02:21:38;99595.00;;;27.32;100.00
11523;BME280;70090;43.208;27.904;2023-08-06T02:24:05;99577.03;;;27.35;100.00
11523;BME280;70090;43.208;27.904;2023-08-06T02:26:31;99568.56;;;27.35;100.00
11523;BME280;70090;43.208;27.904;2023-08-06T02:29:00;99569.09;;;27.39;100.00
11523;BME280;70090;43.208;27.904;2023-08-06T02:31:27;99566.75;;;27.37;100.00
11523;BME280;70090;43.208;27.904;2023-08-06T02:33:53;99565.47;;;27.33;100.00
11523;BME280;70090;43.208;27.904;2023-08-06T02:36:20;99562.16;;;27.34;100.00
11523;BME280;70090;43.208;27.904;2023-08-06T02:38:47;99558.53;;;27.34;100.00
11523;BME280;70090;43.208;27.904;2023-08-06T02:41:14;99565.47;;;27.33;100.00
11523;BME280;70090;43.208;27.904;2023-08-06T02:43:41;99558.28;;;27.32;100.00
11523;BME280;70090;43.208;27.904;2023-08-06T02:46:09;99557.25;;;27.35;100.00
11523;BME280;70090;43.208;27.904;2023-08-06T02:48:36;99556.25;;;27.32;100.00
11523;BME280;70090;43.208;27.904;2023-08-06T02:51:03;99560.06;;;27.35;100.00
11523;BME280;70090;43.208;27.904;2023-08-06T02:53:29;99568.28;;;27.33;100.00
11523;BME280;70090;43.208;27.904;2023-08-06T02:55:57;99571.66;;;27.31;100.00
11523;BME280;70090;43.208;27.904;2023-08-06T02:58:24;99567.00;;;27.28;100.00
11523;BME280;70090;43.208;27.904;2023-08-06T03:01:01;99585.50;;;27.29;100.00
11523;BME280;70090;43.208;27.904;2023-08-06T03:03:30;99589.59;;;27.28;100.00
11523;BME280;70090;43.208;27.904;2023-08-06T03:05:57;99592.97;;;27.27;100.00
11523;BME280;70090;43.208;27.904;2023-08-06T03:08:24;99595.25;;;27.23;100.00
11523;BME280;70090;43.208;27.904;2023-08-06T03:10:51;99587.53;;;27.12;100.00
11523;BME280;70090;43.208;27.904;2023-08-06T03:13:18;99602.56;;;26.87;100.00
11523;BME280;70090;43.208;27.904;2023-08-06T03:15:52;99608.50;;;26.89;100.00
11523;BME280;70090;43.208;27.904;2023-08-06T03:18:19;99606.56;;;26.59;100.00
11523;BME280;70090;43.208;27.904;2023-08-06T03:20:47;99605.31;;;26.29;100.00
11523;BME280;70090;43.208;27.904;2023-08-06T03:23:14;99612.47;;;26.19;100.00
11523;BME280;70090;43.208;27.904;2023-08-06T03:25:41;99612.16;;;26.11;100.00
11523;BME280;70090;43.208;27.904;2023-08-06T03:28:08;99609.06;;;26.09;100.00
11523;BME280;70090;43.208;27.904;2023-08-06T03:30:35;99610.88;;;26.12;100.00
11523;BME280;70090;43.208;27.904;2023-08-06T03:33:02;99606.50;;;26.11;100.00
11523;BME280;70090;43.208;27.904;2023-08-06T03:35:29;99610.25;;;25.97;100.00
11523;BME280;70090;43.208;27.904;2023-08-06T03:37:57;99609.50;;;26.02;100.00
11523;BME280;70090;43.208;27.904;2023-08-06T03:40:24;99607.19;;;25.95;100.00
11523;BME280;70090;43.208;27.904;2023-08-06T03:42:51;99606.22;;;25.78;100.00
11523;BME280;70090;43.208;27.904;2023-08-06T03:45:18;99607.78;;;25.79;100.00
11523;BME280;70090;43.208;27.904;2023-08-06T03:47:44;99622.78;;;25.66;100.00
11523;BME280;70090;43.208;27.904;2023-08-06T03:50:11;99625.22;;;25.53;100.00
11523;BME280;70090;43.208;27.904;2023-08-06T03:52:38;99621.53;;;25.41;100.00
11523;BME280;70090;43.208;27.904;2023-08-06T03:55:07;99610.16;;;25.30;100.00
11523;BME280;70090;43.208;27.904;2023-08-06T03:57:33;99597.66;;;25.37;100.00
11523;BME280;70090;43.208;27.904;2023-08-06T04:00:00;99603.63;;;25.44;100.00
11523;BME280;70090;43.208;27.904;2023-08-06T04:02:28;99597.59;;;25.57;100.00
11523;BME280;70090;43.208;27.904;2023-08-06T04:04:55;99602.63;;;25.73;100.00
11523;BME280;70090;43.208;27.904;2023-08-06T04:07:24;99598.91;;;25.87;100.00
11523;BME280;70090;43.208;27.904;2023-08-06T04:09:53;99596.69;;;26.01;100.00
11523;BME280;70090;43.208;27.904;2023-08-06T04:12:21;99586.56;;;26.20;100.00
11523;BME280;70090;43.208;27.904;2023-08-06T04:14:50;99587.19;;;26.35;100.00
11523;BME280;70090;43.208;27.904;2023-08-06T04:17:17;99582.94;;;26.51;100.00
11523;BME280;70090;43.208;27.904;2023-08-06T04:19:46;99588.09;;;26.63;100.00
11523;BME280;70090;43.208;27.904;2023-08-06T04:22:13;99590.72;;;26.72;100.00
11523;BME280;70090;43.208;27.904;2023-08-06T04:24:41;99579.97;;;26.87;100.00
11523;BME280;70090;43.208;27.904;2023-08-06T04:27:08;99585.16;;;27.05;100.00
11523;BME280;70090;43.208;27.904;2023-08-06T04:29:37;99574.16;;;27.13;100.00
11523;BME280;70090;43.208;27.904;2023-08-06T04:32:06;99579.34;;;27.25;100.00
11523;BME280;70090;43.208;27.904;2023-08-06T04:34:33;99580.13;;;27.20;100.00
11523;BME280;70090;43.208;27.904;2023-08-06T04:37:00;99589.59;;;27.28;100.00
11523;BME280;70090;43.208;27.904;2023-08-06T04:39:27;99584.75;;;27.29;100.00
11523;BME280;70090;43.208;27.904;2023-08-06T04:41:55;99586.03;;;27.22;100.00
11523;BME280;70090;43.208;27.904;2023-08-06T04:44:22;99582.84;;;26.98;100.00
11523;BME280;70090;43.208;27.904;2023-08-06T04:46:50;99554.88;;;26.95;100.00
11523;BME280;70090;43.208;27.904;2023-08-06T04:49:17;99563.16;;;27.20;100.00
11523;BME280;70090;43.208;27.904;2023-08-06T04:51:44;99555.47;;;27.32;100.00
11523;BME280;70090;43.208;27.904;2023-08-06T04:54:11;99545.94;;;27.40;100.00
11523;BME280;70090;43.208;27.904;2023-08-06T04:56:38;99553.91;;;27.69;100.00
11523;BME280;70090;43.208;27.904;2023-08-06T04:59:05;99539.53;;;27.89;100.00
11523;BME280;70090;43.208;27.904;2023-08-06T05:01:32;99550.03;;;28.05;100.00
11523;BME280;70090;43.208;27.904;2023-08-06T05:04:00;99546.94;;;28.14;100.00
11523;BME280;70090;43.208;27.904;2023-08-06T05:06:27;99548.50;;;28.04;100.00
11523;BME280;70090;43.208;27.904;2023-08-06T05:08:54;99545.16;;;28.06;100.00
11523;BME280;70090;43.208;27.904;2023-08-06T05:11:21;99538.75;;;28.11;100.00
11523;BME280;70090;43.208;27.904;2023-08-06T05:13:47;99539.47;;;28.17;100.00
11523;BME280;70090;43.208;27.904;2023-08-06T05:16:14;99539.25;;;28.09;100.00
11523;BME280;70090;43.208;27.904;2023-08-06T05:18:41;99530.50;;;28.07;100.00
11523;BME280;70090;43.208;27.904;2023-08-06T05:21:09;99534.31;;;28.15;100.00
11523;BME280;70090;43.208;27.904;2023-08-06T05:23:36;99536.09;;;28.29;100.00
11523;BME280;70090;43.208;27.904;2023-08-06T05:26:03;99545.31;;;28.46;100.00
11523;BME280;70090;43.208;27.904;2023-08-06T05:28:30;99541.41;;;28.60;100.00
11523;BME280;70090;43.208;27.904;2023-08-06T05:30:56;99547.28;;;28.67;100.00
11523;BME280;70090;43.208;27.904;2023-08-06T05:33:23;99538.84;;;28.57;100.00
11523;BME280;70090;43.208;27.904;2023-08-06T05:35:50;99539.84;;;28.65;100.00
11523;BME280;70090;43.208;27.904;2023-08-06T05:38:18;99544.97;;;28.66;100.00
11523;BME280;70090;43.208;27.904;2023-08-06T05:40:45;99536.06;;;28.51;100.00
11523;BME280;70090;43.208;27.904;2023-08-06T05:43:13;99541.16;;;28.58;100.00
11523;BME280;70090;43.208;27.904;2023-08-06T05:45:39;99528.84;;;28.50;100.00
11523;BME280;70090;43.208;27.904;2023-08-06T05:48:10;99527.53;;;28.57;100.00
11523;BME280;70090;43.208;27.904;2023-08-06T05:50:37;99530.81;;;28.66;100.00
11523;BME280;70090;43.208;27.904;2023-08-06T05:53:04;99525.44;;;28.63;100.00
11523;BME280;70090;43.208;27.904;2023-08-06T05:55:32;99521.28;;;28.69;100.00
11523;BME280;70090;43.208;27.904;2023-08-06T05:57:59;99520.97;;;28.78;100.00
11523;BME280;70090;43.208;27.904;2023-08-06T06:00:26;99524.03;;;28.91;100.00
11523;BME280;70090;43.208;27.904;2023-08-06T06:02:52;99526.00;;;29.01;100.00
11523;BME280;70090;43.208;27.904;2023-08-06T06:05:19;99522.03;;;29.15;100.00
11523;BME280;70090;43.208;27.904;2023-08-06T06:07:46;99520.16;;;29.29;100.00
11523;BME280;70090;43.208;27.904;2023-08-06T06:10:13;99523.97;;;29.37;100.00
11523;BME280;70090;43.208;27.904;2023-08-06T06:12:41;99529.06;;;29.44;100.00
11523;BME280;70090;43.208;27.904;2023-08-06T06:15:09;99528.75;;;29.53;100.00
11523;BME280;70090;43.208;27.904;2023-08-06T06:17:36;99526.63;;;29.59;100.00
11523;BME280;70090;43.208;27.904;2023-08-06T06:20:03;99530.78;;;29.58;100.00
11523;BME280;70090;43.208;27.904;2023-08-06T06:22:30;99537.47;;;29.60;100.00
11523;BME280;70090;43.208;27.904;2023-08-06T06:24:57;99530.44;;;29.67;100.00
11523;BME280;70090;43.208;27.904;2023-08-06T06:27:24;99536.53;;;29.76;100.00
11523;BME280;70090;43.208;27.904;2023-08-06T06:29:52;99538.00;;;29.83;100.00
11523;BME280;70090;43.208;27.904;2023-08-06T06:32:20;99540.28;;;29.90;100.00
11523;BME280;70090;43.208;27.904;2023-08-06T06:34:47;99530.91;;;29.95;100.00
11523;BME280;70090;43.208;27.904;2023-08-06T06:37:14;99549.47;;;29.96;100.00
11523;BME280;70090;43.208;27.904;2023-08-06T06:39:41;99545.56;;;29.75;100.00
11523;BME280;70090;43.208;27.904;2023-08-06T06:42:08;99543.88;;;29.61;100.00
11523;BME280;70090;43.208;27.904;2023-08-06T06:44:34;99532.47;;;29.37;100.00
11523;BME280;70090;43.208;27.904;2023-08-06T06:47:03;99538.53;;;29.52;100.00
11523;BME280;70090;43.208;27.904;2023-08-06T06:49:30;99537.19;;;29.58;100.00
11523;BME280;70090;43.208;27.904;2023-08-06T06:51:57;99533.00;;;29.70;100.00
11523;BME280;70090;43.208;27.904;2023-08-06T06:54:24;99534.66;;;29.84;100.00
11523;BME280;70090;43.208;27.904;2023-08-06T06:56:51;99537.56;;;30.03;100.00
11523;BME280;70090;43.208;27.904;2023-08-06T06:59:17;99540.25;;;30.19;100.00
11523;BME280;70090;43.208;27.904;2023-08-06T07:01:44;99521.84;;;30.26;100.00
11523;BME280;70090;43.208;27.904;2023-08-06T07:04:12;99526.94;;;30.33;100.00
11523;BME280;70090;43.208;27.904;2023-08-06T07:06:39;99523.00;;;30.36;100.00
11523;BME280;70090;43.208;27.904;2023-08-06T07:09:06;99530.06;;;30.29;100.00
11523;BME280;70090;43.208;27.904;2023-08-06T07:11:33;99538.28;;;30.33;100.00
11523;BME280;70090;43.208;27.904;2023-08-06T07:14:00;99534.13;;;30.34;100.00
11523;BME280;70090;43.208;27.904;2023-08-06T07:16:27;99538.28;;;30.33;100.00
11523;BME280;70090;43.208;27.904;2023-08-06T07:18:54;99533.84;;;30.37;100.00
11523;BME280;70090;43.208;27.904;2023-08-06T07:21:22;99535.91;;;30.37;100.00
11523;BME280;70090;43.208;27.904;2023-08-06T07:23:49;99531.09;;;30.50;100.00
11523;BME280;70090;43.208;27.904;2023-08-06T07:26:16;99528.41;;;30.58;100.00
11523;BME280;70090;43.208;27.904;2023-08-06T07:28:43;99530.22;;;30.61;100.00
11523;BME280;70090;43.208;27.904;2023-08-06T07:31:10;99523.59;;;30.53;100.00
11523;BME280;70090;43.208;27.904;2023-08-06T07:33:37;99531.25;;;30.39;100.00
11523;BME280;70090;43.208;27.904;2023-08-06T07:36:08;99522.34;;;30.48;100.00
11523;BME280;70090;43.208;27.904;2023-08-06T07:38:36;99528.50;;;30.52;100.00
11523;BME280;70090;43.208;27.904;2023-08-06T07:41:04;99525.84;;;30.60;100.00
11523;BME280;70090;43.208;27.904;2023-08-06T07:43:31;99530.53;;;30.76;100.00
11523;BME280;70090;43.208;27.904;2023-08-06T07:45:58;99538.69;;;30.66;100.00
11523;BME280;70090;43.208;27.904;2023-08-06T07:48:26;99544.03;;;30.70;100.00
11523;BME280;70090;43.208;27.904;2023-08-06T07:50:52;99544.66;;;30.63;100.00
11523;BME280;70090;43.208;27.904;2023-08-06T07:53:20;99546.66;;;30.68;100.00
11523;BME280;70090;43.208;27.904;2023-08-06T07:55:50;99549.50;;;30.68;100.00
11523;BME280;70090;43.208;27.904;2023-08-06T07:58:17;99534.22;;;30.71;100.00
11523;BME280;70090;43.208;27.904;2023-08-06T08:00:44;99539.25;;;30.59;100.00
11523;BME280;70090;43.208;27.904;2023-08-06T08:03:12;99543.66;;;30.60;100.00
11523;BME280;70090;43.208;27.904;2023-08-06T08:05:39;99554.41;;;30.43;100.00
11523;BME280;70090;43.208;27.904;2023-08-06T08:08:06;99554.59;;;30.27;100.00
11523;BME280;70090;43.208;27.904;2023-08-06T08:10:34;99545.63;;;30.23;100.00
11523;BME280;70090;43.208;27.904;2023-08-06T08:13:03;99552.50;;;30.09;100.00
11523;BME280;70090;43.208;27.904;2023-08-06T08:15:31;99550.19;;;30.07;100.00
11523;BME280;70090;43.208;27.904;2023-08-06T08:17:58;99555.84;;;30.07;100.00
11523;BME280;70090;43.208;27.904;2023-08-06T08:20:25;99564.03;;;30.16;100.00
11523;BME280;70090;43.208;27.904;2023-08-06T08:22:57;99546.56;;;30.31;100.00
11523;BME280;70090;43.208;27.904;2023-08-06T08:25:24;99543.59;;;30.42;100.00
11523;BME280;70090;43.208;27.904;2023-08-06T08:27:52;99547.50;;;30.39;100.00
11523;BME280;70090;43.208;27.904;2023-08-06T08:30:20;99552.84;;;30.24;100.00
11523;BME280;70090;43.208;27.904;2023-08-06T08:32:47;99548.91;;;30.27;100.00
11523;BME280;70090;43.208;27.904;2023-08-06T08:35:14;99532.50;;;30.20;100.00
11523;BME280;70090;43.208;27.904;2023-08-06T08:37:41;99530.06;;;30.29;100.00
11523;BME280;70090;43.208;27.904;2023-08-06T08:40:09;99527.25;;;30.48;100.00
11523;BME280;70090;43.208;27.904;2023-08-06T08:42:36;99523.38;;;30.51;100.00
11523;BME280;70090;43.208;27.904;2023-08-06T08:45:05;99506.47;;;30.58;100.00
11523;BME280;70090;43.208;27.904;2023-08-06T08:47:36;99496.56;;;30.46;100.00
11523;BME280;70090;43.208;27.904;2023-08-06T08:50:05;99495.94;;;30.35;100.00
11523;BME280;70090;43.208;27.904;2023-08-06T08:52:33;99497.09;;;30.45;100.00
11523;BME280;70090;43.208;27.904;2023-08-06T08:55:02;99510.31;;;30.61;100.00
11523;BME280;70090;43.208;27.904;2023-08-06T08:57:29;99518.47;;;30.70;100.00
11523;BME280;70090;43.208;27.904;2023-08-06T08:59:56;99520.56;;;30.69;100.00
11523;BME280;70090;43.208;27.904;2023-08-06T09:02:24;99519.94;;;30.76;100.00
11523;BME280;70090;43.208;27.904;2023-08-06T09:04:55;99518.09;;;30.79;100.00
11523;BME280;70090;43.208;27.904;2023-08-06T09:07:23;99510.72;;;30.89;100.00
11523;BME280;70090;43.208;27.904;2023-08-06T09:09:52;99508.28;;;30.98;100.00
11523;BME280;70090;43.208;27.904;2023-08-06T09:12:20;99510.13;;;30.96;100.00
11523;BME280;70090;43.208;27.904;2023-08-06T09:14:47;99513.47;;;31.13;100.00
11523;BME280;70090;43.208;27.904;2023-08-06T09:17:14;99505.25;;;31.28;100.00
11523;BME280;70090;43.208;27.904;2023-08-06T09:19:45;99506.38;;;31.38;100.00
11523;BME280;70090;43.208;27.904;2023-08-06T09:22:15;99496.53;;;31.39;100.00
11523;BME280;70090;43.208;27.904;2023-08-06T09:24:42;99489.19;;;31.30;100.00
11523;BME280;70090;43.208;27.904;2023-08-06T09:27:11;99481.81;;;31.22;100.00
11523;BME280;70090;43.208;27.904;2023-08-06T09:29:42;99476.91;;;31.22;100.00
11523;BME280;70090;43.208;27.904;2023-08-06T09:32:10;99482.97;;;31.13;100.00
11523;BME280;70090;43.208;27.904;2023-08-06T09:34:39;99472.63;;;31.16;100.00
11523;BME280;70090;43.208;27.904;2023-08-06T09:37:08;99471.69;;;31.08;100.00
11523;BME280;70090;43.208;27.904;2023-08-06T09:39:38;99474.28;;;31.24;100.00
11523;BME280;70090;43.208;27.904;2023-08-06T09:42:05;99464.53;;;31.20;100.00
11523;BME280;70090;43.208;27.904;2023-08-06T09:44:33;99468.75;;;31.32;100.00
11523;BME280;70090;43.208;27.904;2023-08-06T09:47:01;99469.00;;;31.47;100.00
11523;BME280;70090;43.208;27.904;2023-08-06T09:49:40;99474.69;;;31.47;100.00
11523;BME280;70090;43.208;27.904;2023-08-06T09:52:10;99471.59;;;31.45;100.00
11523;BME280;70090;43.208;27.904;2023-08-06T09:54:39;99464.38;;;31.44;100.00
11523;BME280;70090;43.208;27.904;2023-08-06T09:57:06;99469.53;;;31.45;100.00
11523;BME280;70090;43.208;27.904;2023-08-06T09:59:34;99465.72;;;31.55;100.00
11523;BME280;70090;43.208;27.904;2023-08-06T10:02:02;99457.00;;;31.66;100.00
11523;BME280;70090;43.208;27.904;2023-08-06T10:04:34;99447.31;;;31.31;100.00
11523;BME280;70090;43.208;27.904;2023-08-06T10:07:01;99451.69;;;31.32;100.00
11523;BME280;70090;43.208;27.904;2023-08-06T10:09:28;99448.75;;;31.50;100.00
11523;BME280;70090;43.208;27.904;2023-08-06T10:11:58;99450.84;;;31.50;100.00
11523;BME280;70090;43.208;27.904;2023-08-06T10:14:28;99451.50;;;31.55;100.00
11523;BME280;70090;43.208;27.904;2023-08-06T10:16:57;99443.88;;;31.63;100.00
11523;BME280;70090;43.208;27.904;2023-08-06T10:19:25;99433.59;;;31.60;100.00
11523;BME280;70090;43.208;27.904;2023-08-06T10:22:09;99436.03;;;31.69;100.00
11523;BME280;70090;43.208;27.904;2023-08-06T10:24:49;99422.66;;;31.77;100.00
11523;BME280;70090;43.208;27.904;2023-08-06T10:27:28;99422.78;;;31.72;100.00
11523;BME280;70090;43.208;27.904;2023-08-06T10:29:56;99425.88;;;31.87;100.00
11523;BME280;70090;43.208;27.904;2023-08-06T10:32:46;99427.03;;;32.17;100.00
11523;BME280;70090;43.208;27.904;2023-08-06T10:35:28;99426.63;;;32.26;100.00
11523;BME280;70090;43.208;27.904;2023-08-06T10:37:58;99414.66;;;32.15;100.00
11523;BME280;70090;43.208;27.904;2023-08-06T10:40:26;99408.03;;;31.99;100.00
11523;BME280;70090;43.208;27.904;2023-08-06T10:42:58;99406.94;;;32.02;100.00
11523;BME280;70090;43.208;27.904;2023-08-06T10:45:25;99405.41;;;32.01;100.00
11523;BME280;70090;43.208;27.904;2023-08-06T10:47:54;99398.16;;;31.87;100.00
11523;BME280;70090;43.208;27.904;2023-08-06T10:50:23;99402.75;;;32.03;100.00
11523;BME280;70090;43.208;27.904;2023-08-06T10:52:50;99404.06;;;32.15;100.00
11523;BME280;70090;43.208;27.904;2023-08-06T10:55:25;99408.22;;;31.88;100.00
11523;BME280;70090;43.208;27.904;2023-08-06T10:57:52;99402.75;;;31.77;100.00
11523;BME280;70090;43.208;27.904;2023-08-06T11:00:20;99399.06;;;31.82;100.00
11523;BME280;70090;43.208;27.904;2023-08-06T11:02:48;99396.28;;;32.03;100.00
11523;BME280;70090;43.208;27.904;2023-08-06T11:05:15;99391.81;;;32.20;100.00
11523;BME280;70090;43.208;27.904;2023-08-06T11:07:42;99408.09;;;32.33;100.00
11523;BME280;70090;43.208;27.904;2023-08-06T11:10:10;99403.63;;;32.24;100.00
11523;BME280;70090;43.208;27.904;2023-08-06T11:12:38;99412.47;;;32.34;100.00
11523;BME280;70090;43.208;27.904;2023-08-06T11:15:06;99401.75;;;32.40;100.00
11523;BME280;70090;43.208;27.904;2023-08-06T11:17:35;99380.06;;;32.37;100.00
11523;BME280;70090;43.208;27.904;2023-08-06T11:20:03;99374.75;;;31.94;100.00
11523;BME280;70090;43.208;27.904;2023-08-06T11:22:31;99380.88;;;31.72;100.00
11523;BME280;70090;43.208;27.904;2023-08-06T11:24:58;99382.41;;;31.73;100.00
11523;BME280;70090;43.208;27.904;2023-08-06T11:27:27;99370.78;;;31.46;100.00
11523;BME280;70090;43.208;27.904;2023-08-06T11:29:54;99384.63;;;31.80;100.00
11523;BME280;70090;43.208;27.904;2023-08-06T11:32:21;99379.56;;;31.86;100.00
11523;BME280;70090;43.208;27.904;2023-08-06T11:34:49;99364.44;;;32.04;100.00
11523;BME280;70090;43.208;27.904;2023-08-06T11:37:20;99344.47;;;32.30;100.00
11523;BME280;70090;43.208;27.904;2023-08-06T11:39:47;99316.72;;;32.10;100.00
11523;BME280;70090;43.208;27.904;2023-08-06T11:42:14;99301.66;;;31.89;100.00
11523;BME280;70090;43.208;27.904;2023-08-06T11:44:41;99358.13;;;31.72;100.00
11523;BME280;70090;43.208;27.904;2023-08-06T11:47:13;99382.50;;;31.42;100.00
11523;BME280;70090;43.208;27.904;2023-08-06T11:49:42;99377.44;;;31.35;100.00
11523;BME280;70090;43.208;27.904;2023-08-06T11:52:14;99383.44;;;31.32;100.00
11523;BME280;70090;43.208;27.904;2023-08-06T11:54:41;99390.75;;;31.27;100.00
11523;BME280;70090;43.208;27.904;2023-08-06T11:57:09;99388.16;;;30.98;100.00
11523;BME280;70090;43.208;27.904;2023-08-06T11:59:37;99466.81;;;30.53;100.00
11523;BME280;70090;43.208;27.904;2023-08-06T12:02:05;99520.50;;;29.14;100.00
11523;BME280;70090;43.208;27.904;2023-08-06T12:04:57;99532.13;;;28.65;100.00
11523;BME280;70090;43.208;27.904;2023-08-06T12:07:28;99515.59;;;28.01;100.00
11523;BME280;70090;43.208;27.904;2023-08-06T12:09:55;99526.16;;;27.46;100.00
11523;BME280;70090;43.208;27.904;2023-08-06T12:12:22;99525.41;;;27.23;100.00
11523;BME280;70090;43.208;27.904;2023-08-06T12:14:49;99526.69;;;27.22;100.00
11523;BME280;70090;43.208;27.904;2023-08-06T12:17:16;99484.78;;;27.04;100.00
11523;BME280;70090;43.208;27.904;2023-08-06T12:19:44;99478.88;;;26.97;100.00
11523;BME280;70090;43.208;27.904;2023-08-06T12:22:11;99487.81;;;26.73;100.00
11523;BME280;70090;43.208;27.904;2023-08-06T12:24:40;99499.78;;;26.46;100.00
11523;BME280;70090;43.208;27.904;2023-08-06T12:27:07;99508.19;;;26.35;100.00
11523;BME280;70090;43.208;27.904;2023-08-06T12:29:34;99511.41;;;26.12;100.00
11523;BME280;70090;43.208;27.904;2023-08-06T12:32:01;99511.66;;;26.08;100.00
11523;BME280;70090;43.208;27.904;2023-08-06T12:34:28;99497.03;;;26.04;100.00
11523;BME280;70090;43.208;27.904;2023-08-06T12:36:54;99490.19;;;25.80;100.00
11523;BME280;70090;43.208;27.904;2023-08-06T12:39:21;99487.78;;;25.68;100.00
11523;BME280;70090;43.208;27.904;2023-08-06T12:41:49;99466.38;;;25.45;100.00
11523;BME280;70090;43.208;27.904;2023-08-06T12:44:16;99472.38;;;25.27;100.00